PWSweather.com
Personal Weather Stations
Station Observations
KMAMEDFI2
Medfield, MA 02052

Medfield, MA 02052

Lat: 42.1900822, Lon: -71.3296889

Elevation: 138

Station Type: Rainwise WS MK-III

http://www.medfieldweather.com

Latest ConditionsUpdated 8:00:00 PM EST Monday, Feb 8, 2016
Currently Today's Max Today's Min Today's Average
Temperature 19.3°F-7.1°C 36.7°F2.6°C 17.2°F-8.2°C 24.6°F-4.1°C
Dew Point 17.6°F-8.0°C 33.9°F1.1°C 15.5°F-9.2°C 21.9°F-5.6°C
Winds 5.5 mph NNW8.9 kmh NNW 9.9 mph NE15.9 kmh NE - 4.1 mph 6.6 kmh
Wind Gusts 8.8 mph14.2 kmh 30.0 mph48.3 kmh - -
Humidity 93% 95% 79% 89%
Pressure 29.76 in1007.8 mb 30.00 in1015.9 mb 29.69 in1005.4 mb -
Hour Temp Dew Point Humidity Winds Wind Gusts Pressure Precip Precip Rate Daily Precip Total
08:00 PM 19.3°F-7.1°C 17.6°F-8.0°C 93% 5.5 mph NNW8.9 kmh NNW 8.8 mph14.2 kmh 29.76 in1007.8 mb - 0.00 in0.0 mm 0.00 in0.0 mm
07:50 PM 19.4°F-7.0°C 17.7°F-7.9°C 93% 3.5 mph NW5.6 kmh NW 8.8 mph14.2 kmh 29.77 in1008.1 mb - 0.00 in0.0 mm 0.00 in0.0 mm
07:40 PM 19.4°F-7.0°C 17.7°F-7.9°C 93% 3.8 mph WNW6.1 kmh WNW 5.0 mph8.0 kmh 29.76 in1007.8 mb - 0.00 in0.0 mm 0.00 in0.0 mm
07:30 PM 19.4°F-7.0°C 17.7°F-7.9°C 93% 3.4 mph NW5.5 kmh NW 8.8 mph14.2 kmh 29.76 in1007.8 mb - 0.00 in0.0 mm 0.00 in0.0 mm
07:20 PM 19.4°F-7.0°C 17.7°F-7.9°C 93% Calm Calm 2.5 mph4.0 kmh 29.76 in1007.8 mb - 0.00 in0.0 mm 0.00 in0.0 mm
07:10 PM 19.4°F-7.0°C 17.7°F-7.9°C 93% 3.8 mph WNW6.1 kmh WNW 7.5 mph12.1 kmh 29.76 in1007.8 mb - 0.00 in0.0 mm 0.00 in0.0 mm
07:00 PM 19.4°F-7.0°C 17.7°F-7.9°C 93% 2.8 mph WNW4.5 kmh WNW 7.5 mph12.1 kmh 29.76 in1007.8 mb - 0.00 in0.0 mm 0.00 in0.0 mm
06:50 PM 19.4°F-7.0°C 17.7°F-7.9°C 93% 2.1 mph NW3.4 kmh NW 8.8 mph14.2 kmh 29.75 in1007.5 mb - 0.00 in0.0 mm 0.00 in0.0 mm
06:40 PM 19.5°F-6.9°C 17.8°F-7.9°C 93% 4.8 mph WSW7.7 kmh WSW 11.2 mph18.0 kmh 29.75 in1007.5 mb - 0.00 in0.0 mm 0.00 in0.0 mm
06:30 PM 19.6°F-6.9°C 17.9°F-7.8°C 93% 0.1 mph NW0.2 kmh NW 1.2 mph1.9 kmh 29.75 in1007.5 mb - 0.00 in0.0 mm 0.00 in0.0 mm
06:20 PM 19.6°F-6.9°C 17.9°F-7.8°C 93% 2.2 mph NW3.5 kmh NW 11.2 mph18.0 kmh 29.74 in1007.1 mb - 0.00 in0.0 mm 0.00 in0.0 mm
06:10 PM 19.7°F-6.8°C 18.0°F-7.8°C 93% 2.7 mph E4.3 kmh E 5.0 mph8.0 kmh 29.74 in1007.1 mb - 0.00 in0.0 mm 0.00 in0.0 mm
06:00 PM 19.8°F-6.8°C 18.1°F-7.7°C 93% 3.5 mph N5.6 kmh N 10.0 mph16.1 kmh 29.74 in1007.1 mb - 0.00 in0.0 mm 0.00 in0.0 mm
05:50 PM 19.8°F-6.8°C 18.1°F-7.7°C 93% 2.4 mph N3.9 kmh N 3.8 mph6.1 kmh 29.73 in1006.8 mb - 0.00 in0.0 mm 0.00 in0.0 mm
05:40 PM 19.9°F-6.7°C 18.2°F-7.7°C 93% 2.4 mph NW3.9 kmh NW 8.8 mph14.2 kmh 29.72 in1006.4 mb - 0.00 in0.0 mm 0.00 in0.0 mm
05:30 PM 19.9°F-6.7°C 18.2°F-7.7°C 93% 3.2 mph NNW5.1 kmh NNW 7.5 mph12.1 kmh 29.72 in1006.4 mb - 0.00 in0.0 mm 0.00 in0.0 mm
05:20 PM 19.9°F-6.7°C 18.2°F-7.7°C 93% 3.8 mph SSW6.1 kmh SSW 8.8 mph14.2 kmh 29.72 in1006.4 mb - 0.00 in0.0 mm 0.00 in0.0 mm
05:10 PM 19.9°F-6.7°C 18.2°F-7.7°C 93% 2.2 mph NW3.5 kmh NW 6.3 mph10.1 kmh 29.72 in1006.4 mb - 0.00 in0.0 mm 0.00 in0.0 mm
05:00 PM 19.9°F-6.7°C 18.2°F-7.7°C 93% 2.9 mph WSW4.7 kmh WSW 7.5 mph12.1 kmh 29.72 in1006.4 mb - 0.00 in0.0 mm 0.00 in0.0 mm
04:50 PM 19.9°F-6.7°C 18.2°F-7.7°C 93% 3.1 mph NNW5.0 kmh NNW 7.5 mph12.1 kmh 29.71 in1006.1 mb - 0.00 in0.0 mm 0.00 in0.0 mm
04:40 PM 19.9°F-6.7°C 18.2°F-7.7°C 93% 4.2 mph NW6.8 kmh NW 11.2 mph18.0 kmh 29.71 in1006.1 mb - 0.00 in0.0 mm 0.00 in0.0 mm
04:30 PM 20.0°F-6.7°C 18.3°F-7.6°C 93% 2.5 mph ENE4.0 kmh ENE 11.2 mph18.0 kmh 29.70 in1005.8 mb - 0.00 in0.0 mm 0.00 in0.0 mm
04:20 PM 19.9°F-6.7°C 18.2°F-7.7°C 93% 2.8 mph WSW4.5 kmh WSW 17.5 mph28.2 kmh 29.70 in1005.8 mb - 0.00 in0.0 mm 0.00 in0.0 mm
04:10 PM 19.9°F-6.7°C 18.2°F-7.7°C 93% 3.9 mph NW6.3 kmh NW 11.2 mph18.0 kmh 29.70 in1005.8 mb - 0.00 in0.0 mm 0.00 in0.0 mm
04:00 PM 19.9°F-6.7°C 18.2°F-7.7°C 93% 4.6 mph W7.4 kmh W 15.0 mph24.1 kmh 29.69 in1005.4 mb - 0.00 in0.0 mm 0.00 in0.0 mm
03:50 PM 19.9°F-6.7°C 18.2°F-7.7°C 93% 4.0 mph W6.4 kmh W 11.2 mph18.0 kmh 29.70 in1005.8 mb - 0.00 in0.0 mm 0.00 in0.0 mm
03:40 PM 19.8°F-6.8°C 18.1°F-7.7°C 93% 4.0 mph N6.4 kmh N 8.8 mph14.2 kmh 29.69 in1005.4 mb - 0.00 in0.0 mm 0.00 in0.0 mm
03:30 PM 19.7°F-6.8°C 18.0°F-7.8°C 93% 4.3 mph NW6.9 kmh NW 13.7 mph22.0 kmh 29.69 in1005.4 mb - 0.00 in0.0 mm 0.00 in0.0 mm
03:20 PM 19.5°F-6.9°C 17.8°F-7.9°C 93% 3.8 mph NW6.1 kmh NW 6.3 mph10.1 kmh 29.69 in1005.4 mb - 0.00 in0.0 mm 0.00 in0.0 mm
03:10 PM 19.3°F-7.1°C 17.6°F-8.0°C 93% 3.6 mph WSW5.8 kmh WSW 10.0 mph16.1 kmh 29.69 in1005.4 mb - 0.00 in0.0 mm 0.00 in0.0 mm
03:00 PM 19.2°F-7.1°C 17.5°F-8.1°C 93% 3.6 mph NW5.8 kmh NW 10.0 mph16.1 kmh 29.69 in1005.4 mb - 0.00 in0.0 mm 0.00 in0.0 mm
02:50 PM 19.1°F-7.2°C 17.4°F-8.1°C 93% 4.7 mph N7.6 kmh N 7.5 mph12.1 kmh 29.69 in1005.4 mb - 0.00 in0.0 mm 0.00 in0.0 mm
02:40 PM 19.1°F-7.2°C 17.4°F-8.1°C 93% 3.2 mph NNW5.1 kmh NNW 12.5 mph20.1 kmh 29.69 in1005.4 mb - 0.00 in0.0 mm 0.00 in0.0 mm
02:30 PM 18.9°F-7.3°C 17.3°F-8.2°C 93% 4.4 mph S7.1 kmh S 5.0 mph8.0 kmh 29.69 in1005.4 mb - 0.00 in0.0 mm 0.00 in0.0 mm
02:20 PM 18.9°F-7.3°C 17.2°F-8.2°C 93% 4.3 mph NW6.9 kmh NW 10.0 mph16.1 kmh 29.69 in1005.4 mb - 0.00 in0.0 mm 0.00 in0.0 mm
02:10 PM 18.7°F-7.4°C 17.0°F-8.3°C 93% 3.4 mph E5.5 kmh E 5.0 mph8.0 kmh 29.69 in1005.4 mb - 0.00 in0.0 mm 0.00 in0.0 mm
02:00 PM 18.5°F-7.5°C 16.8°F-8.4°C 93% 4.9 mph NNW7.9 kmh NNW 10.0 mph16.1 kmh 29.69 in1005.4 mb - 0.00 in0.0 mm 0.00 in0.0 mm
01:50 PM 18.3°F-7.6°C 16.7°F-8.5°C 93% 5.1 mph N8.2 kmh N 8.8 mph14.2 kmh 29.69 in1005.4 mb - 0.00 in0.0 mm 0.00 in0.0 mm
01:40 PM 18.2°F-7.7°C 16.6°F-8.6°C 93% 2.9 mph WNW4.7 kmh WNW 11.2 mph18.0 kmh 29.70 in1005.8 mb - 0.00 in0.0 mm 0.00 in0.0 mm
01:30 PM 18.0°F-7.8°C 16.4°F-8.7°C 93% 3.1 mph ESE5.0 kmh ESE 8.8 mph14.2 kmh 29.70 in1005.8 mb - 0.00 in0.0 mm 0.00 in0.0 mm
01:20 PM 17.9°F-7.8°C 16.2°F-8.8°C 93% 5.6 mph WNW9.0 kmh WNW 11.2 mph18.0 kmh 29.70 in1005.8 mb - 0.00 in0.0 mm 0.00 in0.0 mm
01:10 PM 17.9°F-7.8°C 16.2°F-8.8°C 93% 4.2 mph WSW6.8 kmh WSW 6.3 mph10.1 kmh 29.71 in1006.1 mb - 0.00 in0.0 mm 0.00 in0.0 mm
01:00 PM 17.9°F-7.8°C 16.2°F-8.8°C 93% 5.2 mph NW8.4 kmh NW 15.0 mph24.1 kmh 29.72 in1006.4 mb - 0.00 in0.0 mm 0.00 in0.0 mm
12:50 PM 17.9°F-7.8°C 16.2°F-8.8°C 93% 3.6 mph N5.8 kmh N 10.0 mph16.1 kmh 29.73 in1006.8 mb - 0.00 in0.0 mm 0.00 in0.0 mm
12:40 PM 17.7°F-7.9°C 16.0°F-8.9°C 93% 4.0 mph WNW6.4 kmh WNW 11.2 mph18.0 kmh 29.73 in1006.8 mb - 0.00 in0.0 mm 0.00 in0.0 mm
12:30 PM 17.5°F-8.1°C 15.8°F-9.0°C 93% 3.7 mph W6.0 kmh W 7.5 mph12.1 kmh 29.74 in1007.1 mb - 0.00 in0.0 mm 0.00 in0.0 mm
12:20 PM 17.3°F-8.2°C 15.6°F-9.1°C 93% 3.3 mph NW5.3 kmh NW 11.2 mph18.0 kmh 29.74 in1007.1 mb - 0.00 in0.0 mm 0.00 in0.0 mm
12:10 PM 17.2°F-8.2°C 15.5°F-9.2°C 93% 5.6 mph ENE9.0 kmh ENE 12.5 mph20.1 kmh 29.75 in1007.5 mb - 0.00 in0.0 mm 0.00 in0.0 mm
12:00 PM 17.3°F-8.2°C 15.6°F-9.1°C 93% 4.0 mph E6.4 kmh E 8.8 mph14.2 kmh 29.76 in1007.8 mb - 0.00 in0.0 mm 0.00 in0.0 mm
11:50 AM 17.3°F-8.2°C 15.6°F-9.1°C 93% 3.9 mph NW6.3 kmh NW 11.2 mph18.0 kmh 29.77 in1008.1 mb - 0.00 in0.0 mm 0.00 in0.0 mm
11:40 AM 17.3°F-8.2°C 15.6°F-9.1°C 93% 4.3 mph SE6.9 kmh SE 10.0 mph16.1 kmh 29.78 in1008.5 mb - 0.00 in0.0 mm 0.00 in0.0 mm
11:30 AM 17.3°F-8.2°C 15.6°F-9.1°C 93% 4.5 mph N7.2 kmh N 12.5 mph20.1 kmh 29.79 in1008.8 mb - 0.00 in0.0 mm 0.00 in0.0 mm
11:20 AM 17.3°F-8.2°C 15.6°F-9.1°C 93% 4.8 mph NE7.7 kmh NE 7.5 mph12.1 kmh 29.80 in1009.1 mb - 0.00 in0.0 mm 0.00 in0.0 mm
11:10 AM 17.5°F-8.1°C 15.8°F-9.0°C 93% 3.1 mph WNW5.0 kmh WNW 11.2 mph18.0 kmh 29.81 in1009.5 mb - 0.00 in0.0 mm 0.00 in0.0 mm
11:00 AM 17.6°F-8.0°C 16.0°F-8.9°C 93% 3.6 mph SSW5.8 kmh SSW 15.0 mph24.1 kmh 29.82 in1009.8 mb - 0.00 in0.0 mm 0.00 in0.0 mm
10:50 AM 17.8°F-7.9°C 16.2°F-8.8°C 93% 3.9 mph W6.3 kmh W 15.0 mph24.1 kmh 29.82 in1009.8 mb - 0.00 in0.0 mm 0.00 in0.0 mm
10:40 AM 18.0°F-7.8°C 16.4°F-8.7°C 93% 4.0 mph NNW6.4 kmh NNW 8.8 mph14.2 kmh 29.83 in1010.2 mb - 0.00 in0.0 mm 0.00 in0.0 mm
10:30 AM 18.3°F-7.6°C 16.6°F-8.6°C 93% 1.8 mph SW2.9 kmh SW 2.5 mph4.0 kmh 29.83 in1010.2 mb - 0.00 in0.0 mm 0.00 in0.0 mm
10:20 AM 18.5°F-7.5°C 16.8°F-8.4°C 93% 4.1 mph SE6.6 kmh SE 8.8 mph14.2 kmh 29.83 in1010.2 mb - 0.00 in0.0 mm 0.00 in0.0 mm
10:10 AM 18.7°F-7.4°C 17.0°F-8.3°C 93% 4.3 mph ENE6.9 kmh ENE 8.8 mph14.2 kmh 29.83 in1010.2 mb - 0.00 in0.0 mm 0.00 in0.0 mm
10:00 AM 18.9°F-7.3°C 17.2°F-8.2°C 93% 2.4 mph SW3.9 kmh SW 7.5 mph12.1 kmh 29.83 in1010.2 mb - 0.00 in0.0 mm 0.00 in0.0 mm
09:50 AM 19.2°F-7.1°C 17.5°F-8.1°C 93% 4.3 mph N6.9 kmh N 11.2 mph18.0 kmh 29.84 in1010.5 mb - 0.00 in0.0 mm 0.00 in0.0 mm
09:40 AM 19.5°F-6.9°C 17.8°F-7.9°C 93% 3.4 mph NE5.5 kmh NE 8.8 mph14.2 kmh 29.83 in1010.2 mb - 0.00 in0.0 mm 0.00 in0.0 mm
09:30 AM 20.1°F-6.6°C 18.4°F-7.6°C 93% 5.3 mph N8.5 kmh N 10.0 mph16.1 kmh 29.83 in1010.2 mb - 0.00 in0.0 mm 0.00 in0.0 mm
09:20 AM 20.9°F-6.2°C 18.9°F-7.3°C 92% 5.7 mph NW9.2 kmh NW 11.2 mph18.0 kmh 29.83 in1010.2 mb - 0.00 in0.0 mm 0.00 in0.0 mm
09:10 AM 21.7°F-5.7°C 18.7°F-7.4°C 88% 4.8 mph NW7.7 kmh NW 17.5 mph28.2 kmh 29.82 in1009.8 mb - 0.00 in0.0 mm 0.00 in0.0 mm
09:00 AM 22.3°F-5.4°C 17.9°F-7.8°C 83% 4.8 mph N7.7 kmh N 8.8 mph14.2 kmh 29.82 in1009.8 mb - 0.00 in0.0 mm 0.00 in0.0 mm
08:50 AM 22.9°F-5.1°C 17.9°F-7.8°C 81% 5.3 mph NNW8.5 kmh NNW 20.0 mph32.2 kmh 29.83 in1010.2 mb - 0.00 in0.0 mm 0.00 in0.0 mm
08:40 AM 23.3°F-4.8°C 18.4°F-7.6°C 81% 5.2 mph NW8.4 kmh NW 13.7 mph22.0 kmh 29.83 in1010.2 mb - 0.00 in0.0 mm 0.00 in0.0 mm
08:30 AM 23.8°F-4.6°C 18.9°F-7.3°C 81% 2.3 mph SE3.7 kmh SE 7.5 mph12.1 kmh 29.84 in1010.5 mb - 0.00 in0.0 mm 0.00 in0.0 mm
08:20 AM 24.3°F-4.3°C 19.0°F-7.2°C 80% 4.3 mph SSE6.9 kmh SSE 11.2 mph18.0 kmh 29.84 in1010.5 mb - 0.00 in0.0 mm 0.00 in0.0 mm
08:10 AM 24.9°F-3.9°C 19.3°F-7.1°C 79% 5.1 mph NE8.2 kmh NE 10.0 mph16.1 kmh 29.85 in1010.8 mb - 0.00 in0.0 mm 0.00 in0.0 mm
08:00 AM 25.6°F-3.6°C 20.5°F-6.4°C 81% 4.8 mph N7.7 kmh N 13.7 mph22.0 kmh 29.84 in1010.5 mb - 0.00 in0.0 mm 0.00 in0.0 mm
07:50 AM 26.3°F-3.2°C 22.1°F-5.5°C 84% 4.3 mph ENE6.9 kmh ENE 17.5 mph28.2 kmh 29.83 in1010.2 mb - 0.00 in0.0 mm 0.00 in0.0 mm
07:40 AM 26.7°F-2.9°C 22.3°F-5.4°C 83% 5.5 mph NNW8.9 kmh NNW 17.5 mph28.2 kmh 29.83 in1010.2 mb - 0.00 in0.0 mm 0.00 in0.0 mm
07:30 AM 27.0°F-2.8°C 22.5°F-5.3°C 83% 5.0 mph E8.0 kmh E 15.0 mph24.1 kmh 29.82 in1009.8 mb - 0.00 in0.0 mm 0.00 in0.0 mm
07:20 AM 27.4°F-2.6°C 22.6°F-5.2°C 82% 7.0 mph E11.3 kmh E 12.5 mph20.1 kmh 29.83 in1010.2 mb - 0.00 in0.0 mm 0.00 in0.0 mm
07:10 AM 27.7°F-2.4°C 22.9°F-5.1°C 82% 5.8 mph E9.3 kmh E 7.5 mph12.1 kmh 29.83 in1010.2 mb - 0.00 in0.0 mm 0.00 in0.0 mm
07:00 AM 27.9°F-2.3°C 22.9°F-5.1°C 81% 7.3 mph NNE11.7 kmh NNE 16.2 mph26.1 kmh 29.84 in1010.5 mb - 0.00 in0.0 mm 0.00 in0.0 mm
06:50 AM 28.3°F-2.1°C 23.8°F-4.6°C 83% 3.5 mph NE5.6 kmh NE 8.8 mph14.2 kmh 29.84 in1010.5 mb - 0.00 in0.0 mm 0.00 in0.0 mm
06:40 AM 28.7°F-1.8°C 23.9°F-4.5°C 82% 4.1 mph E6.6 kmh E 5.0 mph8.0 kmh 29.84 in1010.5 mb - 0.00 in0.0 mm 0.00 in0.0 mm
06:30 AM 28.9°F-1.7°C 23.8°F-4.6°C 81% 4.1 mph E6.6 kmh E 10.0 mph16.1 kmh 29.83 in1010.2 mb - 0.00 in0.0 mm 0.00 in0.0 mm
06:20 AM 29.1°F-1.6°C 24.3°F-4.3°C 82% 4.4 mph E7.1 kmh E 11.2 mph18.0 kmh 29.84 in1010.5 mb - 0.00 in0.0 mm 0.00 in0.0 mm
06:10 AM 29.3°F-1.5°C 24.5°F-4.2°C 82% 3.7 mph NNW6.0 kmh NNW 13.7 mph22.0 kmh 29.84 in1010.5 mb - 0.00 in0.0 mm 0.00 in0.0 mm
06:00 AM 29.6°F-1.3°C 25.1°F-3.8°C 83% 3.4 mph E5.5 kmh E 11.2 mph18.0 kmh 29.84 in1010.5 mb - 0.00 in0.0 mm 0.00 in0.0 mm
05:40 AM 30.3°F-0.9°C 25.5°F-3.6°C 82% 5.0 mph SE8.0 kmh SE 7.5 mph12.1 kmh 29.83 in1010.2 mb - 0.00 in0.0 mm 0.00 in0.0 mm
05:30 AM 30.8°F-0.7°C 25.6°F-3.6°C 81% 6.7 mph NE10.8 kmh NE 15.0 mph24.1 kmh 29.84 in1010.5 mb - 0.00 in0.0 mm 0.00 in0.0 mm
05:20 AM 31.2°F-0.4°C 27.0°F-2.8°C 84% 3.6 mph ESE5.8 kmh ESE 11.2 mph18.0 kmh 29.84 in1010.5 mb - 0.00 in0.0 mm 0.00 in0.0 mm
05:10 AM 31.6°F-0.2°C 27.4°F-2.6°C 84% 6.5 mph ENE10.5 kmh ENE 11.2 mph18.0 kmh 29.83 in1010.2 mb - 0.00 in0.0 mm 0.00 in0.0 mm
05:00 AM 31.9°F-0.1°C 27.9°F-2.3°C 85% 5.5 mph E8.9 kmh E 17.5 mph28.2 kmh 29.84 in1010.5 mb - 0.00 in0.0 mm 0.00 in0.0 mm
04:50 AM 32.4°F0.2°C 28.4°F-2.0°C 85% 7.2 mph ENE11.6 kmh ENE 22.5 mph36.2 kmh 29.84 in1010.5 mb - 0.00 in0.0 mm 0.00 in0.0 mm
04:40 AM 32.9°F0.5°C 28.9°F-1.7°C 85% 3.6 mph E5.8 kmh E 7.5 mph12.1 kmh 29.84 in1010.5 mb - 0.00 in0.0 mm 0.00 in0.0 mm
04:30 AM 33.3°F0.7°C 29.2°F-1.6°C 85% 5.7 mph E9.2 kmh E 13.7 mph22.0 kmh 29.84 in1010.5 mb - 0.00 in0.0 mm 0.00 in0.0 mm
04:20 AM 33.6°F0.9°C 29.6°F-1.3°C 85% 4.6 mph E7.4 kmh E 17.5 mph28.2 kmh 29.86 in1011.2 mb - 0.00 in0.0 mm 0.00 in0.0 mm
04:10 AM 34.0°F1.1°C 29.9°F-1.2°C 85% 7.6 mph E12.2 kmh E 13.7 mph22.0 kmh 29.86 in1011.2 mb - 0.00 in0.0 mm 0.00 in0.0 mm
04:00 AM 34.3°F1.3°C 30.3°F-0.9°C 85% 7.5 mph ENE12.1 kmh ENE 16.2 mph26.1 kmh 29.85 in1010.8 mb - 0.00 in0.0 mm 0.00 in0.0 mm
03:50 AM 34.5°F1.4°C 30.4°F-0.9°C 85% 5.1 mph ENE8.2 kmh ENE 8.8 mph14.2 kmh 29.86 in1011.2 mb - 0.00 in0.0 mm 0.00 in0.0 mm
03:40 AM 34.6°F1.4°C 30.3°F-0.9°C 84% 3.4 mph ESE5.5 kmh ESE 7.5 mph12.1 kmh 29.87 in1011.5 mb - 0.00 in0.0 mm 0.00 in0.0 mm
03:30 AM 34.8°F1.6°C 30.1°F-1.1°C 83% 5.7 mph ESE9.2 kmh ESE 13.7 mph22.0 kmh 29.86 in1011.2 mb - 0.00 in0.0 mm 0.00 in0.0 mm
03:20 AM 35.0°F1.7°C 30.9°F-0.6°C 85% 5.4 mph NE8.7 kmh NE 11.2 mph18.0 kmh 29.87 in1011.5 mb - 0.00 in0.0 mm 0.00 in0.0 mm
03:10 AM 35.3°F1.8°C 31.6°F-0.2°C 86% 5.7 mph ENE9.2 kmh ENE 15.0 mph24.1 kmh 29.88 in1011.9 mb - 0.00 in0.0 mm 0.00 in0.0 mm
03:00 AM 35.7°F2.1°C 32.5°F0.3°C 88% 5.9 mph E9.5 kmh E 13.7 mph22.0 kmh 29.89 in1012.2 mb - 0.00 in0.0 mm 0.00 in0.0 mm
02:50 AM 36.1°F2.3°C 32.6°F0.3°C 87% 4.8 mph NE7.7 kmh NE 17.5 mph28.2 kmh 29.90 in1012.5 mb - 0.00 in0.0 mm 0.00 in0.0 mm
02:40 AM 36.5°F2.5°C 32.7°F0.4°C 86% 3.3 mph NE5.3 kmh NE 6.3 mph10.1 kmh 29.90 in1012.5 mb - 0.00 in0.0 mm 0.00 in0.0 mm
02:30 AM 36.5°F2.5°C 32.4°F0.2°C 85% 5.1 mph NE8.2 kmh NE 18.8 mph30.3 kmh 29.90 in1012.5 mb - 0.00 in0.0 mm 0.00 in0.0 mm
02:20 AM 36.4°F2.4°C 32.0°F0.0°C 84% 2.2 mph NNE3.5 kmh NNE 7.5 mph12.1 kmh 29.91 in1012.9 mb - 0.00 in0.0 mm 0.00 in0.0 mm
02:10 AM 36.5°F2.5°C 31.5°F-0.3°C 82% 3.0 mph E4.8 kmh E 5.0 mph8.0 kmh 29.92 in1013.2 mb - 0.00 in0.0 mm 0.00 in0.0 mm
02:00 AM 36.6°F2.6°C 31.4°F-0.3°C 81% 3.9 mph NE6.3 kmh NE 11.2 mph18.0 kmh 29.92 in1013.2 mb - 0.00 in0.0 mm 0.00 in0.0 mm
01:50 AM 36.6°F2.6°C 32.2°F0.1°C 84% 4.7 mph E7.6 kmh E 11.2 mph18.0 kmh 29.93 in1013.5 mb - 0.00 in0.0 mm 0.00 in0.0 mm
01:40 AM 36.7°F2.6°C 32.7°F0.4°C 85% 3.9 mph E6.3 kmh E 11.2 mph18.0 kmh 29.93 in1013.5 mb - 0.00 in0.0 mm 0.00 in0.0 mm
01:30 AM 36.6°F2.6°C 32.9°F0.5°C 86% 9.9 mph NE15.9 kmh NE 30.0 mph48.3 kmh 29.93 in1013.5 mb - 0.00 in0.0 mm 0.00 in0.0 mm
01:20 AM 36.5°F2.5°C 33.5°F0.8°C 89% 3.3 mph NE5.3 kmh NE 6.3 mph10.1 kmh 29.94 in1013.9 mb - 0.00 in0.0 mm 0.00 in0.0 mm
01:10 AM 36.6°F2.6°C 33.9°F1.1°C 90% 2.9 mph E4.7 kmh E 11.2 mph18.0 kmh 29.94 in1013.9 mb - 0.00 in0.0 mm 0.00 in0.0 mm
01:00 AM 36.4°F2.4°C 33.7°F0.9°C 90% 3.6 mph E5.8 kmh E 7.5 mph12.1 kmh 29.94 in1013.9 mb - 0.00 in0.0 mm 0.00 in0.0 mm
12:50 AM 35.9°F2.2°C 33.6°F0.9°C 91% 3.8 mph E6.1 kmh E 7.5 mph12.1 kmh 29.95 in1014.2 mb - 0.00 in0.0 mm 0.00 in0.0 mm
12:40 AM 35.3°F1.8°C 33.4°F0.8°C 93% 1.9 mph S3.1 kmh S 8.8 mph14.2 kmh 29.96 in1014.6 mb - 0.00 in0.0 mm 0.00 in0.0 mm
12:30 AM 34.5°F1.4°C 33.2°F0.7°C 95% 1.7 mph NE2.7 kmh NE 7.5 mph12.1 kmh 29.96 in1014.6 mb - 0.00 in0.0 mm 0.00 in0.0 mm
12:20 AM 34.3°F1.3°C 33.0°F0.6°C 95% 1.9 mph ENE3.1 kmh ENE 5.0 mph8.0 kmh 29.98 in1015.2 mb - 0.00 in0.0 mm 0.00 in0.0 mm
12:00 AM 31.5°F-0.3°C 30.2°F-1.0°C 95% 0.9 mph NW1.4 kmh NW 5.0 mph8.0 kmh 30.00 in1015.9 mb - 0.00 in0.0 mm 0.00 in0.0 mm